Time;durP1;ratioP1;P1;durP2;ratioP2;P2;SDS_P1;SDS_P2;PMS_P1;PMS_P2;Temp;Humidity;BMP_temperature;BMP_pressure;BME280_temperature;BME280_humidity;BME280_pressure;Samples;Min_cycle;Max_cycle;Signal;HPM_P1;HPM_P2
2022/04/26 03:38:52;;;;;;;46.67;29.45;;;;;;;11.95;71.52;98686.91;5225511;28;20063;-68
2022/04/26 03:41:42;;;;;;;51.03;31.67;;;;;;;11.98;71.82;98689.25;5196288;28;20055;-67
2022/04/26 03:44:32;;;;;;;46.40;29.52;;;;;;;11.84;71.96;98673.88;5225701;28;20065;-72
2022/04/26 03:47:23;;;;;;;53.20;30.92;;;;;;;11.76;71.57;98656.09;5215397;28;20713;-67
2022/04/26 03:50:13;;;;;;;49.58;30.55;;;;;;;11.85;71.68;98679.06;5231031;28;20044;-66
2022/04/26 03:53:03;;;;;;;55.65;32.25;;;;;;;11.93;71.22;98697.69;5231170;28;20052;-71
2022/04/26 03:55:53;;;;;;;54.55;31.42;;;;;;;11.92;71.81;98688.09;5245395;28;20122;-68
2022/04/26 03:58:44;;;;;;;58.72;33.60;;;;;;;11.70;72.10;98675.31;5246802;28;20134;-68
2022/04/26 04:01:34;;;;;;;56.15;33.25;;;;;;;11.70;72.13;98673.50;5230435;28;20052;-69
2022/04/26 04:04:24;;;;;;;55.53;31.55;;;;;;;11.82;71.36;98694.44;5237246;28;20056;-71
2022/04/26 04:07:15;;;;;;;53.30;31.02;;;;;;;11.82;71.32;98690.00;5225803;28;20063;-68
2022/04/26 04:10:05;;;;;;;56.83;32.35;;;;;;;11.87;71.36;98692.19;5211182;28;20055;-70
2022/04/26 04:12:55;;;;;;;54.85;32.70;;;;;;;11.92;71.28;98698.72;5226112;28;20153;-69
2022/04/26 04:15:46;;;;;;;57.92;32.88;;;;;;;11.87;71.25;98705.47;5209297;28;20759;-68
2022/04/26 04:21:49;;;;;;;58.40;33.28;;;;;;;11.81;71.76;98709.56;5253222;28;20082;-70
2022/04/26 04:24:39;;;;;;;60.40;32.70;;;;;;;11.86;71.00;98706.47;5262622;28;20052;-70
2022/04/26 04:27:31;;;;;;;53.60;33.38;;;;;;;11.79;71.51;98692.97;5266905;28;20196;-70
2022/04/26 04:30:21;;;;;;;55.72;33.17;;;;;;;11.87;71.47;98713.44;5250910;28;20517;-69
2022/04/26 04:33:10;;;;;;;55.72;34.05;;;;;;;11.88;71.63;98712.44;5239657;28;20102;-69
2022/04/26 04:36:01;;;;;;;59.92;34.47;;;;;;;11.92;71.25;98697.84;5245191;28;20049;-71
2022/04/26 04:38:51;;;;;;;61.45;35.35;;;;;;;11.99;71.23;98713.00;5230848;28;20410;-69
2022/04/26 04:41:41;;;;;;;60.17;34.85;;;;;;;12.00;71.30;98719.16;5244700;28;20194;-70
2022/04/26 04:44:31;;;;;;;63.20;37.25;;;;;;;11.92;71.51;98713.78;5230774;28;20427;-71
2022/04/26 04:47:21;;;;;;;66.88;38.10;;;;;;;12.11;70.42;98723.34;5224583;28;20137;-70
2022/04/26 04:50:11;;;;;;;68.43;38.47;;;;;;;11.97;71.00;98712.31;5209809;28;20053;-69
2022/04/26 04:53:02;;;;;;;63.63;36.13;;;;;;;12.01;70.78;98723.47;5231751;28;20460;-67
2022/04/26 04:55:52;;;;;;;66.78;38.45;;;;;;;12.17;71.46;98725.38;5223950;28;20051;-68
2022/04/26 04:58:42;;;;;;;67.85;38.03;;;;;;;12.06;71.44;98715.88;5225097;28;20055;-69
2022/04/26 05:01:32;;;;;;;66.25;37.78;;;;;;;12.02;71.21;98722.50;5215939;28;20053;-70
2022/04/26 05:04:22;;;;;;;63.13;37.20;;;;;;;11.99;71.62;98706.88;5227586;28;20435;-69
2022/04/26 05:07:13;;;;;;;61.47;34.92;;;;;;;12.03;70.94;98707.38;5224557;28;20708;-68
2022/04/26 05:10:04;;;;;;;59.20;33.85;;;;;;;12.06;71.31;98721.19;5225643;28;20194;-70
2022/04/26 05:12:55;;;;;;;55.97;33.83;;;;;;;12.00;71.93;98708.53;5225777;28;20549;-69
2022/04/26 05:15:44;;;;;;;57.97;34.60;;;;;;;12.20;71.52;98720.56;5260184;28;20197;-69
2022/04/26 05:18:35;;;;;;;54.40;32.38;;;;;;;12.20;70.93;98719.72;5260961;28;20150;-69
2022/04/26 05:21:25;;;;;;;58.03;32.97;;;;;;;12.24;70.83;98726.38;5246973;28;20088;-68
2022/04/26 05:27:29;;;;;;;51.17;30.08;;;;;;;12.19;70.96;98732.19;5253178;28;20550;-70
2022/04/26 05:30:19;;;;;;;52.00;30.38;;;;;;;12.00;71.10;98711.19;5246741;28;20122;-69
2022/04/26 05:33:09;;;;;;;48.45;29.90;;;;;;;12.13;71.36;98730.16;5244218;28;20059;-70
2022/04/26 05:35:59;;;;;;;57.53;32.85;;;;;;;12.09;70.97;98702.25;5244898;28;20063;-70
2022/04/26 05:38:49;;;;;;;60.20;35.38;;;;;;;12.34;70.93;98727.06;5229552;28;20048;-69
2022/04/26 05:41:40;;;;;;;60.35;33.80;;;;;;;12.18;70.87;98717.22;5244384;28;20053;-69
2022/04/26 05:44:30;;;;;;;59.08;35.00;;;;;;;12.23;70.99;98735.34;5244520;28;20056;-69
2022/04/26 05:47:21;;;;;;;57.75;33.50;;;;;;;12.17;70.66;98736.81;5243138;28;20044;-69
2022/04/26 05:50:12;;;;;;;57.67;33.10;;;;;;;12.25;70.38;98744.03;5244594;28;20473;-69
2022/04/26 05:53:03;;;;;;;53.08;31.48;;;;;;;12.09;70.98;98731.50;5229386;28;20059;-71
2022/04/26 05:55:53;;;;;;;47.55;28.42;;;;;;;12.27;69.95;98751.81;5244155;28;20055;-69
2022/04/26 05:58:43;;;;;;;45.67;28.33;;;;;;;12.31;70.45;98748.66;5244806;28;20101;-67
2022/04/26 06:01:34;;;;;;;40.53;26.08;;;;;;;12.32;70.12;98753.00;5243510;28;20182;-69
2022/04/26 06:04:27;;;;;;;42.05;27.42;;;;;;;12.35;69.65;98751.84;5223655;28;20060;-68
2022/04/26 06:07:17;;;;;;;46.17;28.30;;;;;;;12.39;69.43;98750.53;5208567;28;20096;-68
2022/04/26 06:10:09;;;;;;;44.05;27.48;;;;;;;12.00;70.38;98719.16;5223659;28;20560;-69
2022/04/26 06:12:59;;;;;;;44.72;28.55;;;;;;;12.32;70.64;98741.56;5223355;28;20048;-70
2022/04/26 06:15:49;;;;;;;51.08;30.80;;;;;;;12.52;70.05;98750.91;5225434;28;20049;-68
2022/04/26 06:18:40;;;;;;;48.90;29.48;;;;;;;12.49;70.47;98751.22;5243690;28;20055;-69
2022/04/26 06:21:30;;;;;;;46.58;28.20;;;;;;;12.55;70.45;98769.22;5243890;28;20056;-70
2022/04/26 06:24:20;;;;;;;45.33;30.08;;;;;;;12.44;70.85;98762.34;5244050;28;20056;-70
2022/04/26 06:27:10;;;;;;;48.30;29.67;;;;;;;12.56;69.49;98768.19;5243842;28;20145;-68
2022/04/26 06:30:01;;;;;;;45.47;28.55;;;;;;;12.39;69.91;98763.84;5225735;28;20048;-69
2022/04/26 06:32:51;;;;;;;47.33;28.83;;;;;;;12.45;70.60;98772.00;5225677;28;20119;-71
2022/04/26 06:35:41;;;;;;;50.92;29.27;;;;;;;12.51;70.03;98762.53;5242839;28;20114;-70
2022/04/26 06:38:32;;;;;;;45.75;29.08;;;;;;;12.59;69.33;98765.22;5223348;28;20676;-71
2022/04/26 06:41:22;;;;;;;49.60;30.00;;;;;;;12.57;71.28;98766.38;5207981;28;20526;-69
2022/04/26 06:44:12;;;;;;;48.03;29.10;;;;;;;12.66;69.78;98774.22;5208124;28;20088;-71
2022/04/26 06:47:03;;;;;;;51.47;30.65;;;;;;;12.49;71.19;98755.72;5223113;28;20410;-70
2022/04/26 06:49:52;;;;;;;50.42;29.48;;;;;;;12.79;70.35;98759.63;5218518;28;20049;-68
2022/04/26 06:52:42;;;;;;;48.85;30.77;;;;;;;12.62;70.91;98759.59;5243008;28;20048;-70
2022/04/26 06:55:34;;;;;;;51.33;30.27;;;;;;;12.75;70.46;98760.91;5243462;28;20468;-68
2022/04/26 06:58:24;;;;;;;48.53;30.90;;;;;;;12.60;70.92;98776.69;5228638;28;20215;-68
2022/04/26 07:01:14;;;;;;;43.22;27.83;;;;;;;12.61;71.51;98770.38;5228289;28;20068;-69
2022/04/26 07:04:25;;;;;;;43.30;26.65;;;;;;;12.63;70.36;98757.75;5243195;28;20078;-69
2022/04/26 07:07:16;;;;;;;49.15;32.95;;;;;;;12.85;70.05;98767.78;5228384;28;20161;-69
2022/04/26 07:10:07;;;;;;;47.45;30.98;;;;;;;12.84;69.73;98775.91;5243643;28;20571;-68
2022/04/26 07:12:57;;;;;;;42.90;28.73;;;;;;;13.01;68.47;98782.91;5243487;28;20055;-68
2022/04/26 07:15:48;;;;;;;45.05;29.00;;;;;;;12.40;71.07;98761.00;5243555;28;20051;-69
2022/04/26 07:18:39;;;;;;;38.90;25.73;;;;;;;12.18;70.31;98749.09;5243774;28;20116;-69
2022/04/26 07:21:36;;;;;;;42.15;27.02;;;;;;;12.35;72.62;98776.63;5243298;28;20081;-68
2022/04/26 07:24:46;;;;;;;36.25;24.52;;;;;;;12.64;70.53;98762.88;5243423;28;20059;-68
2022/04/26 07:27:36;;;;;;;36.28;24.00;;;;;;;13.05;68.45;98773.63;5243684;28;20060;-68
2022/04/26 07:30:34;;;;;;;32.63;23.10;;;;;;;12.60;71.05;98763.38;5246255;28;20098;-68
2022/04/26 07:36:34;;;;;;;29.33;20.13;;;;;;;11.99;70.21;98762.66;5247537;28;20056;-68
2022/04/26 07:39:24;;;;;;;27.25;18.83;;;;;;;11.97;70.17;98762.81;5232370;28;20055;-68
2022/04/26 07:42:14;;;;;;;29.70;20.08;;;;;;;11.83;70.86;98760.72;5247184;28;20094;-68
2022/04/26 07:45:05;;;;;;;29.85;20.27;;;;;;;12.17;70.48;98760.75;5247066;28;20056;-68
2022/04/26 07:47:55;;;;;;;25.80;18.48;;;;;;;11.78;71.53;98765.66;5247216;28;20103;-67
2022/04/26 07:50:47;;;;;;;24.50;18.02;;;;;;;12.29;69.77;98760.47;5246802;28;20079;-69
2022/04/26 07:53:38;;;;;;;23.45;16.83;;;;;;;12.08;69.67;98767.00;5247208;28;20541;-68
2022/04/26 07:56:29;;;;;;;27.08;18.63;;;;;;;11.99;69.86;98752.88;5246681;28;20059;-69
2022/04/26 07:59:19;;;;;;;28.55;17.92;;;;;;;12.94;68.28;98763.28;5231620;28;20193;-68
2022/04/26 08:02:10;;;;;;;24.70;18.27;;;;;;;12.93;67.15;98762.44;5246805;28;20059;-68
2022/04/26 08:05:08;;;;;;;24.50;17.63;;;;;;;12.68;68.28;98745.63;5246336;28;20048;-68
2022/04/26 08:07:58;;;;;;;28.95;17.80;;;;;;;13.39;66.52;98780.66;5247417;28;20143;-68
2022/04/26 08:10:49;;;;;;;23.85;17.33;;;;;;;13.52;66.13;98780.16;5231756;28;20697;-70
2022/04/26 08:13:40;;;;;;;23.65;16.67;;;;;;;13.53;65.08;98793.28;5246534;28;20138;-68
2022/04/26 08:16:31;;;;;;;24.38;17.27;;;;;;;13.35;66.52;98771.34;5246327;28;20474;-69
2022/04/26 08:19:21;;;;;;;26.33;16.88;;;;;;;13.53;65.31;98816.44;5246536;28;20315;-69
2022/04/26 08:22:12;;;;;;;24.30;17.17;;;;;;;13.93;66.15;98815.56;5230693;28;20533;-69
2022/04/26 08:28:11;;;;;;;24.80;17.48;;;;;;;14.18;64.16;98819.00;5245948;28;20479;-69
2022/04/26 08:31:02;;;;;;;21.10;16.42;;;;;;;13.89;62.43;98822.22;5246071;28;20082;-69
2022/04/26 08:33:52;;;;;;;24.45;17.02;;;;;;;13.69;64.55;98827.09;5230945;28;20129;-68
2022/04/26 08:36:42;;;;;;;27.40;17.80;;;;;;;14.45;64.27;98823.06;5246341;28;20059;-68
2022/04/26 08:39:33;;;;;;;20.52;15.23;;;;;;;14.09;62.43;98842.19;5246058;28;20064;-68
2022/04/26 08:42:41;;;;;;;22.77;16.80;;;;;;;14.09;64.26;98842.19;5245730;28;20527;-69
2022/04/26 08:45:38;;;;;;;23.83;16.90;;;;;;;14.31;64.35;98839.81;5245563;28;20053;-69
2022/04/26 08:51:37;;;;;;;22.40;14.57;;;;;;;15.32;60.17;98840.81;5258659;28;20127;-69
2022/04/26 08:54:29;;;;;;;18.88;14.45;;;;;;;14.29;62.39;98853.28;5246038;28;20060;-68
2022/04/26 08:57:20;;;;;;;17.63;13.10;;;;;;;14.70;61.28;98842.53;5245689;28;20056;-68
2022/04/26 09:00:11;;;;;;;18.42;12.90;;;;;;;14.96;60.12;98833.38;5230526;28;20169;-68
2022/04/26 09:03:04;;;;;;;19.77;13.38;;;;;;;15.52;58.09;98850.84;5245063;28;20048;-69
2022/04/26 09:06:07;;;;;;;16.40;12.20;;;;;;;15.20;59.04;98857.25;5245012;28;20079;-68
2022/04/26 09:09:09;;;;;;;13.80;9.82;;;;;;;14.47;57.57;98849.56;5245540;28;20157;-69
2022/04/26 09:12:00;;;;;;;13.57;10.43;;;;;;;14.62;59.84;98853.22;5244859;28;20149;-69
2022/04/26 09:14:50;;;;;;;14.73;11.07;;;;;;;14.82;58.62;98848.28;5245057;28;20518;-70
2022/04/26 09:17:41;;;;;;;15.68;11.13;;;;;;;13.92;60.85;98864.53;5229737;28;20166;-68
2022/04/26 09:20:34;;;;;;;14.90;11.13;;;;;;;13.92;60.41;98845.88;5258177;28;20062;-69
2022/04/26 09:23:26;;;;;;;16.58;10.80;;;;;;;14.41;59.19;98863.63;5245107;28;20239;-68
2022/04/26 09:26:17;;;;;;;15.95;12.32;;;;;;;14.39;61.54;98862.94;5245012;28;20430;-68
2022/04/26 09:29:08;;;;;;;13.57;10.40;;;;;;;14.95;58.28;98861.91;5245301;28;20414;-68
2022/04/26 09:32:02;;;;;;;17.35;10.73;;;;;;;14.59;57.21;98858.91;5229357;28;20088;-69
2022/04/26 09:34:53;;;;;;;15.70;10.68;;;;;;;14.28;58.08;98850.81;5244734;28;20094;-70
2022/04/26 09:37:43;;;;;;;12.77;10.02;;;;;;;16.11;55.21;98860.06;5229671;28;20055;-68
2022/04/26 09:40:34;;;;;;;15.10;11.07;;;;;;;17.03;54.67;98854.31;5244494;28;20056;-69
2022/04/26 09:43:26;;;;;;;12.93;9.63;;;;;;;18.05;52.72;98862.13;5229616;28;20142;-68
2022/04/26 09:46:16;;;;;;;13.75;9.55;;;;;;;17.31;51.87;98851.72;5244297;28;20121;-69
2022/04/26 09:49:11;;;;;;;12.10;9.23;;;;;;;16.94;51.66;98863.47;5244484;28;20048;-69
2022/04/26 09:52:01;;;;;;;;;;;;;;;17.56;52.43;98861.06;5243706;28;20198;-68
2022/04/26 09:54:51;;;;;;;13.63;9.48;;;;;;;16.94;53.74;98866.16;5244382;28;19927;-69
2022/04/26 09:57:43;;;;;;;15.15;9.07;;;;;;;18.11;52.28;98872.06;5244155;28;20109;-68
2022/04/26 10:00:33;;;;;;;13.43;8.15;;;;;;;18.57;49.46;98843.84;5244353;28;20045;-69
2022/04/26 10:03:26;;;;;;;13.65;8.32;;;;;;;18.54;48.30;98863.88;5244106;28;20071;-68
2022/04/26 10:06:18;;;;;;;12.02;7.15;;;;;;;18.34;49.18;98861.06;5244385;28;20213;-68
2022/04/26 10:09:10;;;;;;;10.60;7.30;;;;;;;19.16;46.43;98864.78;5243548;28;20056;-68
2022/04/26 10:12:02;;;;;;;10.70;7.30;;;;;;;17.45;49.43;98863.41;5242758;28;20063;-69
2022/04/26 10:14:52;;;;;;;11.60;7.10;;;;;;;16.80;47.74;98854.47;5242541;28;20045;-68
2022/04/26 10:17:48;;;;;;;12.50;6.40;;;;;;;16.67;49.90;98863.13;5256345;28;20051;-68
2022/04/26 10:20:39;;;;;;;14.60;7.28;;;;;;;17.33;46.89;98861.25;5242943;28;20053;-68
2022/04/26 10:23:56;;;;;;;10.30;6.80;;;;;;;17.66;47.62;98873.31;5243241;28;20055;-68
2022/04/26 10:26:48;;;;;;;11.18;7.78;;;;;;;17.20;50.02;98865.63;5242688;28;20131;-68
2022/04/26 10:29:44;;;;;;;9.75;7.20;;;;;;;17.45;48.99;98869.63;5228177;28;20553;-68
2022/04/26 10:32:38;;;;;;;10.60;7.25;;;;;;;17.26;49.08;98865.72;5227366;28;20052;-68
2022/04/26 10:35:29;;;;;;;10.67;5.80;;;;;;;16.45;46.95;98859.50;5242467;28;20057;-69
2022/04/26 10:38:20;;;;;;;8.20;6.22;;;;;;;15.60;49.47;98867.84;5227676;28;20137;-69
2022/04/26 10:41:10;;;;;;;10.02;6.78;;;;;;;16.48;47.50;98866.34;5242360;28;20059;-68
2022/04/26 10:44:12;;;;;;;10.52;7.53;;;;;;;16.97;50.50;98873.81;5242937;28;20056;-68
2022/04/26 10:47:03;;;;;;;12.93;8.10;;;;;;;17.22;50.84;98837.63;5272951;22;20209;-90
2022/04/26 10:49:55;;;;;;;11.65;7.75;;;;;;;17.61;46.57;98818.44;5264061;28;20074;-90
2022/04/26 10:52:47;;;;;;;9.45;6.25;;;;;;;16.88;47.61;98828.38;5249770;28;20517;-91
2022/04/26 10:55:38;;;;;;;11.75;6.05;;;;;;;16.97;46.95;98820.25;5250003;28;20051;-90
2022/04/26 10:58:28;;;;;;;7.43;6.00;;;;;;;16.20;47.89;98792.91;5250642;28;20055;-91
2022/04/26 11:01:24;;;;;;;9.82;6.05;;;;;;;16.63;47.70;98827.88;5250405;28;20147;-90
2022/04/26 11:04:16;;;;;;;9.23;6.80;;;;;;;13.99;52.15;98851.38;5245431;28;20104;-90
2022/04/26 11:07:14;;;;;;;9.60;7.05;;;;;;;13.34;54.15;98862.84;5249074;28;20505;-90
2022/04/26 11:10:06;;;;;;;10.10;8.13;;;;;;;13.06;54.20;98849.81;5254614;28;20063;-90
2022/04/26 11:12:58;;;;;;;10.52;8.57;;;;;;;12.04;58.15;98789.59;5261354;28;20063;-91
2022/04/26 11:15:48;;;;;;;16.02;9.50;;;;;;;12.86;59.67;98934.41;5274376;28;20052;-90
2022/04/26 11:18:42;;;;;;;11.65;8.20;;;;;;;11.64;59.70;98883.91;5260491;28;20054;-90
2022/04/26 11:21:33;;;;;;;9.68;7.18;;;;;;;12.37;60.18;98878.31;5274667;28;20071;-90
2022/04/26 11:30:47;;;;;;;10.48;7.15;;;;;;;11.87;64.34;98944.59;5250445;28;20160;-90
2022/04/26 11:33:49;;;;;;;7.97;6.53;;;;;;;11.26;65.63;98888.56;5234814;28;20052;-89
2022/04/26 11:36:39;;;;;;;7.22;4.65;;;;;;;12.55;62.60;98928.78;5234283;28;20059;-90
2022/04/26 11:39:39;;;;;;;5.88;4.05;;;;;;;13.47;59.99;98974.25;5236476;28;20139;-90
2022/04/26 11:42:34;;;;;;;5.78;3.80;;;;;;;12.80;60.62;98976.78;5248104;28;20162;-90
2022/04/26 11:45:28;;;;;;;;;;;;;;;13.37;59.14;98961.06;5248309;28;20048;-90
2022/04/26 11:48:21;;;;;;;5.35;4.30;;;;;;;12.89;60.15;98917.28;5234627;28;20005;-90
2022/04/26 11:51:13;;;;;;;9.95;5.35;;;;;;;14.09;58.02;98927.50;5233974;28;20114;-91
2022/04/26 11:54:03;;;;;;;6.40;5.32;;;;;;;12.85;59.09;98881.38;5234068;28;20048;-91
2022/04/26 11:56:54;;;;;;;7.20;5.70;;;;;;;14.85;59.19;98887.97;5233102;28;20064;-91
2022/04/26 11:59:44;;;;;;;7.03;4.68;;;;;;;14.57;53.91;98924.97;5246805;28;20135;-90
2022/04/26 12:02:36;;;;;;;8.35;5.22;;;;;;;15.49;55.34;98939.38;5246219;28;20053;-90
2022/04/26 12:05:27;;;;;;;5.93;5.00;;;;;;;15.25;54.04;98809.47;5232538;28;20102;-90
2022/04/26 12:08:18;;;;;;;7.90;3.85;;;;;;;13.74;52.84;98885.19;5232612;28;20131;-90
2022/04/26 12:11:29;;;;;;;3.63;3.20;;;;;;;15.40;50.76;98884.34;5246123;28;20106;-91
2022/04/26 12:14:20;;;;;;;6.50;3.38;;;;;;;15.36;49.70;98946.31;5245963;28;20494;-90
2022/04/26 12:17:29;;;;;;;5.53;3.25;;;;;;;14.56;50.12;98977.47;5231575;28;20140;-90
2022/04/26 12:20:20;;;;;;;8.80;4.15;;;;;;;14.71;52.21;98937.59;5246112;28;20419;-91
2022/04/26 12:23:20;;;;;;;5.10;4.07;;;;;;;14.08;51.77;98941.84;5232193;28;20048;-90
2022/04/26 12:26:11;;;;;;;9.73;6.10;;;;;;;13.40;54.14;98840.91;5231872;28;20129;-90
2022/04/26 12:29:01;;;;;;;9.75;5.53;;;;;;;14.77;53.31;98973.44;5246384;28;20063;-90
2022/04/26 12:31:51;;;;;;;10.40;7.18;;;;;;;14.95;51.23;98957.19;5246265;28;20418;-90
2022/04/26 12:35:00;;;;;;;14.18;9.88;;;;;;;13.01;55.29;98883.22;5232760;28;20058;-90
2022/04/26 12:38:08;;;;;;;12.95;8.00;;;;;;;13.24;56.42;98984.63;5233175;28;20126;-90
2022/04/26 12:41:06;;;;;;;7.75;4.00;;;;;;;12.20;56.08;98946.50;5232968;28;20124;-91
2022/04/26 12:44:03;;;;;;;6.15;3.70;;;;;;;11.99;57.39;98964.63;5232502;28;20109;-90
2022/04/26 12:50:28;;;;;;;6.22;3.40;;;;;;;12.11;57.99;98997.91;5246940;28;20051;-91
2022/04/26 12:53:26;;;;;;;4.47;3.38;;;;;;;12.80;57.25;99003.41;5246851;28;20060;-90
2022/04/26 12:56:18;;;;;;;5.93;3.50;;;;;;;12.69;58.56;98996.53;5231834;28;20157;-91
2022/04/26 12:59:18;;;;;;;3.78;2.53;;;;;;;13.16;57.11;98996.91;5246235;28;20075;-91
2022/04/26 13:02:09;;;;;;;5.43;2.30;;;;;;;12.43;54.52;98879.50;5245799;28;20063;-90
2022/04/26 13:04:59;;;;;;;6.50;2.40;;;;;;;12.45;54.00;98888.19;5245719;28;20542;-90
2022/04/26 13:07:51;;;;;;;3.05;2.33;;;;;;;13.43;55.72;98941.78;5232562;28;20190;-89
2022/04/26 13:10:43;;;;;;;6.50;2.80;;;;;;;14.22;55.04;98982.16;5246510;28;20086;-90
2022/04/26 13:13:36;;;;;;;2.88;2.10;;;;;;;14.54;52.81;98995.50;5245551;28;20072;-90
2022/04/26 13:16:26;;;;;;;2.83;2.08;;;;;;;12.82;53.79;98927.75;5240777;28;20055;-90
2022/04/26 13:19:17;;;;;;;2.38;2.10;;;;;;;13.81;54.01;98972.31;5246900;28;20305;-90
2022/04/26 13:22:07;;;;;;;2.80;2.05;;;;;;;13.85;51.92;99026.13;5232208;28;20055;-91
2022/04/26 13:24:57;;;;;;;2.42;2.22;;;;;;;13.66;51.68;98959.81;5246018;28;20060;-90
2022/04/26 13:27:48;;;;;;;4.03;2.00;;;;;;;14.70;51.58;99020.47;5231317;28;20486;-90
2022/04/26 13:30:39;;;;;;;2.38;1.90;;;;;;;12.84;53.13;98920.41;5246230;28;20059;-90
2022/04/26 13:33:30;;;;;;;3.05;1.83;;;;;;;13.03;50.91;98929.97;5245731;28;20044;-90
2022/04/26 13:36:20;;;;;;;2.72;2.20;;;;;;;12.73;53.41;98925.22;5252368;28;20052;-90
2022/04/26 13:39:12;;;;;;;3.13;2.08;;;;;;;13.64;52.53;98951.97;5257302;28;20028;-90
2022/04/26 13:42:02;;;;;;;2.67;2.33;;;;;;;13.96;51.73;98931.66;5256723;28;20059;-90
2022/04/26 13:44:54;;;;;;;2.33;2.13;;;;;;;14.03;52.49;98938.00;5271784;28;20058;-90
2022/04/26 13:47:45;;;;;;;2.03;1.83;;;;;;;14.83;50.55;98972.72;5271528;28;20078;-90
2022/04/26 13:50:35;;;;;;;2.00;1.80;;;;;;;14.08;50.17;98931.16;5252501;28;20056;-90
2022/04/26 13:53:30;;;;;;;2.53;1.70;;;;;;;14.72;49.24;98981.13;5232265;28;20090;-90
2022/04/26 13:56:21;;;;;;;2.67;1.67;;;;;;;14.33;49.81;98945.28;5231143;28;20106;-90
2022/04/26 13:59:12;;;;;;;3.15;1.98;;;;;;;15.55;52.09;99030.56;5231887;28;20530;-90
2022/04/26 14:02:03;;;;;;;3.47;1.60;;;;;;;14.72;49.74;98898.38;5231901;28;20059;-90
2022/04/26 14:04:53;;;;;;;2.00;1.80;;;;;;;15.17;49.99;99022.38;5245389;28;20055;-90
2022/04/26 14:08:18;;;;;;;3.08;2.22;;;;;;;14.91;50.11;98924.66;5235011;28;20075;-94
2022/04/26 14:11:27;;;;;;;4.90;2.00;;;;;;;13.60;48.36;98868.88;5247766;28;20051;-92
2022/04/26 14:23:32;;;;;;;3.85;1.70;;;;;;;13.32;50.32;98859.53;5249562;28;20185;-93
2022/04/26 14:26:31;;;;;;;1.40;1.30;;;;;;;14.81;48.05;99004.13;5265684;22;20058;-70
2022/04/26 14:29:21;;;;;;;1.65;1.50;;;;;;;13.99;51.85;99012.13;5273058;28;20059;-69
2022/04/26 14:32:12;;;;;;;1.85;1.65;;;;;;;14.05;51.40;99022.16;5264320;28;20260;-69
2022/04/26 14:35:02;;;;;;;3.33;1.83;;;;;;;13.95;48.85;99017.97;5264331;28;20193;-69
2022/04/26 14:37:53;;;;;;;17.20;4.30;;;;;;;13.91;49.12;99017.47;5264429;28;20177;-69
2022/04/26 14:40:44;;;;;;;4.25;1.90;;;;;;;12.91;52.34;99011.09;5306696;22;20516;-87
2022/04/26 14:43:36;;;;;;;2.30;2.03;;;;;;;13.42;51.50;98972.06;5294482;28;20066;-87
2022/04/26 14:46:28;;;;;;;5.75;1.70;;;;;;;13.68;52.16;98998.63;5275051;28;20051;-88
2022/04/26 14:49:24;;;;;;;2.75;1.70;;;;;;;14.27;52.67;98961.13;5273826;28;20104;-88
2022/04/26 14:52:16;;;;;;;1.60;1.50;;;;;;;14.49;49.34;99021.81;5276411;28;20055;-87
2022/04/26 14:55:19;;;;;;;1.17;1.08;;;;;;;14.06;47.57;98967.00;5279516;28;20040;-88
2022/04/26 14:58:12;;;;;;;2.22;1.10;;;;;;;13.63;48.32;98985.75;5275818;28;20066;-87
2022/04/26 15:01:02;;;;;;;1.13;1.02;;;;;;;14.65;47.67;99029.00;5291221;28;20136;-88
2022/04/26 15:03:53;;;;;;;0.95;0.85;;;;;;;13.83;48.28;99034.28;5292447;28;20126;-88
2022/04/26 15:06:43;;;;;;;3.20;1.02;;;;;;;13.80;47.82;98969.81;5292120;28;20043;-90
2022/04/26 15:09:45;;;;;;;2.15;1.20;;;;;;;15.14;45.17;99020.88;5296184;28;20051;-89
2022/04/26 15:18:53;;;;;;;3.33;1.25;;;;;;;14.72;47.60;99045.16;5290440;28;20553;-89
2022/04/26 15:21:43;;;;;;;4.43;1.27;;;;;;;14.80;46.96;99003.28;5274680;28;20058;-90
2022/04/26 15:24:34;;;;;;;10.68;7.97;;;;;;;14.48;46.48;98971.31;5276024;28;20059;-90
2022/04/26 15:27:24;;;;;;;3.80;2.50;;;;;;;14.61;47.43;99013.50;5269293;28;20054;-89
2022/04/26 15:30:14;;;;;;;1.88;1.63;;;;;;;14.32;47.95;98958.81;5286945;28;20048;-88
2022/04/26 15:33:04;;;;;;;3.70;1.77;;;;;;;14.61;49.31;99027.69;5286199;27;20065;-89
2022/04/26 15:35:56;;;;;;;3.40;2.05;;;;;;;14.60;48.47;99009.16;5279971;28;20051;-87
2022/04/26 15:38:47;;;;;;;4.78;3.17;;;;;;;14.32;49.36;99020.16;5288518;28;20050;-88
2022/04/26 15:41:38;;;;;;;2.95;2.13;;;;;;;14.24;50.30;98994.34;5282322;28;20047;-88
2022/04/26 15:44:29;;;;;;;7.55;2.40;;;;;;;13.36;53.06;98988.69;5291686;28;20039;-88
2022/04/26 15:47:19;;;;;;;4.18;3.03;;;;;;;14.57;53.58;99051.19;5288606;28;20409;-87
2022/04/26 15:50:10;;;;;;;6.95;4.55;;;;;;;13.51;55.16;99024.38;5299958;27;20055;-88
2022/04/26 15:53:01;;;;;;;5.57;4.07;;;;;;;13.24;58.32;99011.25;5298149;27;20046;-88
2022/04/26 15:55:57;;;;;;;5.38;4.28;;;;;;;13.77;60.46;99023.44;5292796;28;20066;-89
2022/04/26 15:58:48;;;;;;;6.82;4.50;;;;;;;13.36;62.71;99036.63;5277954;28;20055;-87
2022/04/26 16:01:42;;;;;;;3.85;3.00;;;;;;;12.98;59.11;99041.44;5288900;27;20516;-88
2022/04/26 16:04:33;;;;;;;3.45;2.55;;;;;;;12.17;61.47;99015.09;5284107;28;20050;-86
2022/04/26 16:07:24;;;;;;;4.85;2.67;;;;;;;12.74;59.19;99057.22;5284883;28;20024;-87
2022/04/26 16:23:00;;;;;;;4.45;3.22;;;;;;;12.98;58.86;99092.00;5279618;28;20064;-88
2022/04/26 16:25:51;;;;;;;4.65;3.15;;;;;;;12.22;60.59;99077.44;5266445;28;20048;-88
2022/04/26 16:28:42;;;;;;;6.22;2.90;;;;;;;12.62;58.54;99068.13;5289581;28;20109;-88
2022/04/26 16:31:33;;;;;;;3.15;2.80;;;;;;;12.50;59.16;99029.47;5288381;28;20101;-88
2022/04/26 16:34:23;;;;;;;4.18;2.33;;;;;;;13.00;59.11;99090.00;5297840;27;20109;-87
2022/04/26 16:37:13;;;;;;;1.92;1.80;;;;;;;12.62;58.20;99064.66;5313806;27;20035;-88
2022/04/26 16:40:06;;;;;;;1.63;1.00;;;;;;;12.29;57.40;99077.66;5300812;27;20140;-88
2022/04/26 16:42:56;;;;;;;2.15;1.20;;;;;;;12.95;54.64;99097.63;5293225;28;20511;-88
2022/04/26 16:45:48;;;;;;;3.95;1.10;;;;;;;12.79;56.62;99086.88;5293829;28;20133;-86
2022/04/26 16:48:43;;;;;;;1.63;0.85;;;;;;;13.08;55.37;99107.88;5302573;27;20587;-87
2022/04/26 16:51:34;;;;;;;1.50;1.33;;;;;;;12.52;56.66;99095.81;5274520;27;20422;-89
2022/04/26 16:54:25;;;;;;;2.15;1.60;;;;;;;12.83;57.09;99106.84;5285670;28;20054;-89
2022/04/26 16:57:15;;;;;;;3.40;2.50;;;;;;;12.39;58.83;99032.38;5283354;27;20051;-89
2022/04/26 17:00:07;;;;;;;4.10;2.00;;;;;;;12.94;55.88;99037.41;5273268;27;20128;-89
2022/04/26 17:02:57;;;;;;;2.40;1.95;;;;;;;13.59;53.89;99075.00;5268122;27;20750;-88
2022/04/26 17:05:48;;;;;;;2.30;1.73;;;;;;;13.02;55.88;99077.38;5272429;28;20044;-89
2022/04/26 17:08:38;;;;;;;3.22;2.33;;;;;;;13.44;55.75;99111.22;5285057;28;20058;-89
2022/04/26 17:11:44;;;;;;;3.30;2.28;;;;;;;12.32;55.44;99047.28;5275648;27;20047;-90
2022/04/26 17:14:35;;;;;;;4.72;2.88;;;;;;;12.34;56.43;99095.81;5269054;28;20036;-89
2022/04/26 17:17:31;;;;;;;3.58;2.08;;;;;;;12.04;56.20;99095.19;5299002;27;20039;-88
2022/04/26 17:20:22;;;;;;;2.47;1.98;;;;;;;11.67;56.26;99082.81;5297198;27;20111;-87
2022/04/26 17:23:14;;;;;;;2.28;1.52;;;;;;;11.56;57.73;99071.56;5299183;28;20052;-89
2022/04/26 17:26:05;;;;;;;1.83;1.70;;;;;;;12.08;56.36;99095.72;5275800;27;20547;-89
2022/04/26 17:28:55;;;;;;;8.65;7.30;;;;;;;12.07;57.57;99092.25;5285605;28;20047;-88
2022/04/26 17:31:50;;;;;;;3.45;2.10;;;;;;;12.58;56.31;99137.72;5285300;27;20063;-89
2022/04/26 17:34:42;;;;;;;4.47;2.13;;;;;;;12.42;57.20;99144.59;5284801;27;20563;-89
2022/04/26 17:37:32;;;;;;;5.80;2.70;;;;;;;12.07;57.86;99076.28;5289758;28;20057;-88
2022/04/26 17:40:22;;;;;;;3.35;2.20;;;;;;;12.50;56.76;99141.16;5274151;28;20047;-89
2022/04/26 17:43:13;;;;;;;3.60;2.10;;;;;;;11.99;57.48;99098.31;5290499;28;20035;-88
2022/04/26 17:46:11;;;;;;;2.97;2.13;;;;;;;11.87;57.58;99117.28;5309391;28;20031;-87
2022/04/26 17:49:01;;;;;;;3.60;2.50;;;;;;;12.33;57.57;99144.66;5308526;27;20027;-89
2022/04/26 17:51:52;;;;;;;3.17;2.30;;;;;;;12.07;57.21;99104.69;5294788;27;20030;-88
2022/04/26 17:57:52;;;;;;;3.75;2.28;;;;;;;12.46;56.68;99129.16;5289825;27;20054;-89